»·PEaware :: RNGR803 KNGP-KNGP

RNGR803 :: KNGP-KNGP

FLIGHT INFORMATION

Flight Status: Arrived
Operator: Unknown
More flights by this operator :: More flights under this callsign
Pilot: USN Avenger (31125)
Aircraft: BEECH AIRCRAFT T-6A TEXAN
(TEX2)
More flights by this aircraft type
Origin: KNGP Corpus Christi NAS/Truax
United States
Destination: KNGP Corpus Christi NAS/Truax
United States
More flights between these airports :: More routes between these airports
Route:
File this flight plan on PilotEdge
Remarks:
Altitude:
(Current/Filed)
14,500ft
Speed:
(Current/Filed)
240kts
Departed: 15-Nov-23 11:42 AM
Arrived: 15-Nov-23 12:46 PM
Distance/Time
Traveled:
0nm/1:04
Distance/Time
To Go:
Arrived

Flight Plot

Page will automatically refresh every two minutes.

Flight plan parsing failed; only flown route is shown


Map Options




Map Legend


Flown Route
Filed Route
Departure Airport
Arrival Airport
Navaid (VOR, NDB)
Fix

Horizontal Profiles

Position Reports

Time Latitude Longitude Heading Altitude Ground
Speed
15-Nov-23 11:38 27.689596 -97.286234 269 22ft 47kts
15-Nov-23 11:39 27.689579 -97.295447 269 22ft 23kts
15-Nov-23 11:40 27.689629 -97.296268 296 22ft 3kts
15-Nov-23 11:41 27.691408 -97.295644 45 22ft 50kts
15-Nov-23 11:42 27.718772 -97.264242 37 922ft 197kts
15-Nov-23 11:43 27.767922 -97.258703 1 3362ft 185kts
15-Nov-23 11:44 27.819811 -97.263808 352 5583ft 204kts
15-Nov-23 11:45 27.883494 -97.268208 7 6540ft 230kts
15-Nov-23 11:46 27.941036 -97.251081 17 9007ft 215kts
15-Nov-23 11:47 27.998306 -97.238580 10 11354ft 208kts
15-Nov-23 11:48 28.052535 -97.232767 357 13793ft 198kts
15-Nov-23 11:49 28.102880 -97.265964 312 14570ft 249kts
15-Nov-23 11:50 28.157718 -97.319549 353 13553ft 275kts
15-Nov-23 11:51 28.205336 -97.369306 297 13857ft 253kts
15-Nov-23 11:52 28.194842 -97.409348 297 12371ft 279kts
15-Nov-23 11:53 28.262742 -97.423160 5 12525ft 248kts
15-Nov-23 11:54 28.319662 -97.466701 322 9524ft 232kts
15-Nov-23 11:55 28.369348 -97.503553 331 8058ft 204kts
15-Nov-23 11:56 28.422592 -97.498426 10 5695ft 206kts
15-Nov-23 11:57 28.476028 -97.487668 7 3899ft 188kts
15-Nov-23 11:58 28.527610 -97.479678 6 1994ft 180kts
15-Nov-23 11:59 28.564372 -97.506547 301 1064ft 166kts
15-Nov-23 12:00 28.595842 -97.552080 302 1590ft 199kts
15-Nov-23 12:01 28.619455 -97.613062 293 1432ft 205kts
15-Nov-23 12:02 28.627872 -97.635863 3 1228ft 153kts
15-Nov-23 12:03 28.622990 -97.596000 108 1218ft 129kts
15-Nov-23 12:04 28.606738 -97.570010 266 927ft 130kts
15-Nov-23 12:05 28.616392 -97.603461 289 404ft 121kts
15-Nov-23 12:06 28.630967 -97.615985 105 1235ft 136kts
15-Nov-23 12:07 28.615921 -97.578797 143 970ft 126kts
15-Nov-23 12:08 28.616494 -97.603579 291 338ft 94kts
15-Nov-23 12:09 28.632912 -97.611006 96 1161ft 137kts
15-Nov-23 12:10 28.612765 -97.584794 244 758ft 117kts
15-Nov-23 12:11 28.617852 -97.608110 286 327ft 24kts
15-Nov-23 12:12 28.618083 -97.608895 289 327ft 0kts
15-Nov-23 12:13 28.618083 -97.608895 289 327ft 0kts
15-Nov-23 12:14 28.618083 -97.608895 289 327ft 0kts
15-Nov-23 12:15 28.618083 -97.608895 289 327ft 0kts
15-Nov-23 12:16 28.618083 -97.608895 289 327ft 0kts
15-Nov-23 12:17 28.618083 -97.608895 289 327ft 0kts
15-Nov-23 12:45 27.698550 -97.284288 158 22ft 0kts
15-Nov-23 12:46 27.698548 -97.284287 158 22ft 0kts
15-Nov-23 12:47 27.698547 -97.284286 158 22ft 0kts
15-Nov-23 12:48 27.698545 -97.284286 158 22ft 0kts
15-Nov-23 12:49 27.698544 -97.284285 158 22ft 0kts
15-Nov-23 12:51 27.698542 -97.284284 158 22ft 0kts
15-Nov-23 12:52 27.698540 -97.284284 158 22ft 0kts
15-Nov-23 12:53 27.698539 -97.284283 159 22ft 0kts
15-Nov-23 12:54 27.698537 -97.284282 159 22ft 0kts
15-Nov-23 12:55 27.698536 -97.284281 159 22ft 0kts
15-Nov-23 12:56 27.698534 -97.284281 159 22ft 0kts
15-Nov-23 12:57 27.698532 -97.284280 159 22ft 0kts
15-Nov-23 12:58 27.698531 -97.284279 159 22ft 0kts
15-Nov-23 12:59 27.698529 -97.284279 159 22ft 0kts
15-Nov-23 13:00 27.698527 -97.284278 159 22ft 0kts
15-Nov-23 13:01 27.698526 -97.284277 159 22ft 0kts

Navigation Log

Ident Type
Flight plan parsing failed, navigation log unavailable